Aviation Digital Data Service (ADDS)

Output produced by METARs form (0210 UTC 22 April 2019)
found at http://www.aviationweather.gov/metar/data/
 
METAR text: PTYA 220151Z 09007KT 12SM FEW016 SCT130 BKN300 31/24 A2985 RMK SLP110 T03130244
Conditions at: PTYA (YAP ISLAND , FM) observed 0151 UTC 22 April 2019
Temperature: 31.3°C (88°F)
Dewpoint: 24.4°C (76°F) [RH = 67%]
Pressure (altimeter): 29.85 inches Hg (1010.9 mb)
[Sea-level pressure: 1011.0 mb]
Winds: from the E (90 degrees) at 8 MPH (7 knots; 3.6 m/s)
Visibility: 12 miles (19 km)
Ceiling: 30000 feet AGL
Clouds: few clouds at 1600 feet AGL
scattered clouds at 13000 feet AGL
broken clouds at 30000 feet AGL
Weather: no significant weather observed at this time

METAR text: PTYA 220052Z 07007KT 12SM FEW016TCU SCT130 BKN300 32/24 A2984 RMK TCU N SLP107 T03150244
Conditions at: PTYA (YAP ISLAND , FM) observed 0052 UTC 22 April 2019
Temperature: 31.5°C (89°F)
Dewpoint: 24.4°C (76°F) [RH = 66%]
Pressure (altimeter): 29.84 inches Hg (1010.6 mb)
[Sea-level pressure: 1010.7 mb]
Winds: from the ENE (70 degrees) at 8 MPH (7 knots; 3.6 m/s)
Visibility: 12 miles (19 km)
Ceiling: 30000 feet AGL
Clouds: few clouds at 1600 feet AGL
scattered clouds at 13000 feet AGL
broken clouds at 30000 feet AGL
Weather: no significant weather observed at this time

METAR text: PTYA 212352Z 05010KT 12SM FEW016 SCT130 BKN300 30/24 A2987 RMK SLP115 8/171 T03030242 10303 20258 52012
Conditions at: PTYA (YAP ISLAND , FM) observed 2352 UTC 21 April 2019
Temperature: 30.3°C (87°F)
Dewpoint: 24.2°C (76°F) [RH = 70%]
Pressure (altimeter): 29.87 inches Hg (1011.6 mb)
[Sea-level pressure: 1011.5 mb]
Winds: from the NE (50 degrees) at 12 MPH (10 knots; 5.1 m/s)
Visibility: 12 miles (19 km)
Ceiling: 30000 feet AGL
Clouds: few clouds at 1600 feet AGL
scattered clouds at 13000 feet AGL
broken clouds at 30000 feet AGL
Weather: no significant weather observed at this time

METAR text: PTYA 212252Z 07008KT 12SM SCT016 OVC300 29/25 A2987 RMK SLP115 T02900247
Conditions at: PTYA (YAP ISLAND , FM) observed 2252 UTC 21 April 2019
Temperature: 29.0°C (84°F)
Dewpoint: 24.7°C (76°F) [RH = 78%]
Pressure (altimeter): 29.87 inches Hg (1011.6 mb)
[Sea-level pressure: 1011.5 mb]
Winds: from the ENE (70 degrees) at 9 MPH (8 knots; 4.1 m/s)
Visibility: 12 miles (19 km)
Ceiling: 30000 feet AGL
Clouds: scattered clouds at 1600 feet AGL
overcast cloud deck at 30000 feet AGL
Weather: no significant weather observed at this time

METAR text: PTYA 212153Z VRB03KT 12SM FEW016 OVC300 28/25 A2985 RMK SLP110 T02800249
Conditions at: PTYA (YAP ISLAND , FM) observed 2153 UTC 21 April 2019
Temperature: 28.0°C (82°F)
Dewpoint: 24.9°C (77°F) [RH = 83%]
Pressure (altimeter): 29.85 inches Hg (1010.9 mb)
[Sea-level pressure: 1011.0 mb]
Winds: variable direction winds at 3 MPH (3 knots; 1.5 m/s)
Visibility: 12 miles (19 km)
Ceiling: 30000 feet AGL
Clouds: few clouds at 1600 feet AGL
overcast cloud deck at 30000 feet AGL
Weather: no significant weather observed at this time

METAR text: PTYA 212053Z VRB04KT 12SM FEW016 BKN300 26/24 A2983 RMK SLP103 8/108 T02590238 51005
Conditions at: PTYA (YAP ISLAND , FM) observed 2053 UTC 21 April 2019
Temperature: 25.9°C (79°F)
Dewpoint: 23.8°C (75°F) [RH = 88%]
Pressure (altimeter): 29.83 inches Hg (1010.2 mb)
[Sea-level pressure: 1010.3 mb]
Winds: variable direction winds at 5 MPH (4 knots; 2.1 m/s)
Visibility: 12 miles (19 km)
Ceiling: 30000 feet AGL
Clouds: few clouds at 1600 feet AGL
broken clouds at 30000 feet AGL
Weather: no significant weather observed at this time

METAR text: PTYA 211953Z VRB03KT 12SM FEW016 BKN300 26/24 A2983 RMK SLP103 T02580236
Conditions at: PTYA (YAP ISLAND , FM) observed 1953 UTC 21 April 2019
Temperature: 25.8°C (78°F)
Dewpoint: 23.6°C (74°F) [RH = 88%]
Pressure (altimeter): 29.83 inches Hg (1010.2 mb)
[Sea-level pressure: 1010.3 mb]
Winds: variable direction winds at 3 MPH (3 knots; 1.5 m/s)
Visibility: 12 miles (19 km)
Ceiling: 30000 feet AGL
Clouds: few clouds at 1600 feet AGL
broken clouds at 30000 feet AGL
Weather: no significant weather observed at this time

METAR text: PTYA 211850Z VRB03KT 12SM FEW016 BKN300 26/24 A2982 RMK SLP100 T02610239
Conditions at: PTYA (YAP ISLAND , FM) observed 1850 UTC 21 April 2019
Temperature: 26.1°C (79°F)
Dewpoint: 23.9°C (75°F) [RH = 88%]
Pressure (altimeter): 29.82 inches Hg (1009.9 mb)
[Sea-level pressure: 1010.0 mb]
Winds: variable direction winds at 3 MPH (3 knots; 1.5 m/s)
Visibility: 12 miles (19 km)
Ceiling: 30000 feet AGL
Clouds: few clouds at 1600 feet AGL
broken clouds at 30000 feet AGL
Weather: no significant weather observed at this time

METAR text: PTYA 211750Z VRB03KT 12SM FEW016 BKN300 27/24 A2982 RMK SLP098 8/101 T02650241 10276 20262 57015
Conditions at: PTYA (YAP ISLAND , FM) observed 1750 UTC 21 April 2019
Temperature: 26.5°C (80°F)
Dewpoint: 24.1°C (75°F) [RH = 87%]
Pressure (altimeter): 29.82 inches Hg (1009.9 mb)
[Sea-level pressure: 1009.8 mb]
Winds: variable direction winds at 3 MPH (3 knots; 1.5 m/s)
Visibility: 12 miles (19 km)
Ceiling: 30000 feet AGL
Clouds: few clouds at 1600 feet AGL
broken clouds at 30000 feet AGL
Weather: no significant weather observed at this time

METAR text: PTYA 211650Z VRB03KT 12SM FEW016 BKN300 26/24 A2984 RMK SLP105 T02640239
Conditions at: PTYA (YAP ISLAND , FM) observed 1650 UTC 21 April 2019
Temperature: 26.4°C (80°F)
Dewpoint: 23.9°C (75°F) [RH = 86%]
Pressure (altimeter): 29.84 inches Hg (1010.6 mb)
[Sea-level pressure: 1010.5 mb]
Winds: variable direction winds at 3 MPH (3 knots; 1.5 m/s)
Visibility: 12 miles (19 km)
Ceiling: 30000 feet AGL
Clouds: few clouds at 1600 feet AGL
broken clouds at 30000 feet AGL
Weather: no significant weather observed at this time

METAR text: PTYA 211550Z VRB02KT 12SM FEW016 BKN300 26/24 A2985 RMK SLP110 T02620238
Conditions at: PTYA (YAP ISLAND , FM) observed 1550 UTC 21 April 2019
Temperature: 26.2°C (79°F)
Dewpoint: 23.8°C (75°F) [RH = 87%]
Pressure (altimeter): 29.85 inches Hg (1010.9 mb)
[Sea-level pressure: 1011.0 mb]
Winds: variable direction winds at 2 MPH (2 knots; 1.0 m/s)
Visibility: 12 miles (19 km)
Ceiling: 30000 feet AGL
Clouds: few clouds at 1600 feet AGL
broken clouds at 30000 feet AGL
Weather: no significant weather observed at this time

METAR text: PTYA 211452Z VRB03KT 12SM FEW016 SCT300 27/24 A2986 RMK SLP113 8/101 T02680239 403250259 57002
Conditions at: PTYA (YAP ISLAND , FM) observed 1452 UTC 21 April 2019
Temperature: 26.8°C (80°F)
Dewpoint: 23.9°C (75°F) [RH = 84%]
Pressure (altimeter): 29.86 inches Hg (1011.3 mb)
[Sea-level pressure: 1011.3 mb]
Winds: variable direction winds at 3 MPH (3 knots; 1.5 m/s)
Visibility: 12 miles (19 km)
Ceiling: at least 12,000 feet AGL
Clouds: few clouds at 1600 feet AGL
scattered clouds at 30000 feet AGL
Weather: no significant weather observed at this time

METAR text: PTYA 211354Z VRB04KT 12SM FEW016 SCT300 27/24 A2987 RMK SLP115 T02690242
Conditions at: PTYA (YAP ISLAND , FM) observed 1354 UTC 21 April 2019
Temperature: 26.9°C (80°F)
Dewpoint: 24.2°C (76°F) [RH = 85%]
Pressure (altimeter): 29.87 inches Hg (1011.6 mb)
[Sea-level pressure: 1011.5 mb]
Winds: variable direction winds at 5 MPH (4 knots; 2.1 m/s)
Visibility: 12 miles (19 km)
Ceiling: at least 12,000 feet AGL
Clouds: few clouds at 1600 feet AGL
scattered clouds at 30000 feet AGL
Weather: no significant weather observed at this time

METAR text: PTYA 211252Z VRB03KT 12SM FEW016 SCT300 27/24 A2987 RMK SLP117 T02700242
Conditions at: PTYA (YAP ISLAND , FM) observed 1252 UTC 21 April 2019
Temperature: 27.0°C (81°F)
Dewpoint: 24.2°C (76°F) [RH = 85%]
Pressure (altimeter): 29.87 inches Hg (1011.6 mb)
[Sea-level pressure: 1011.7 mb]
Winds: variable direction winds at 3 MPH (3 knots; 1.5 m/s)
Visibility: 12 miles (19 km)
Ceiling: at least 12,000 feet AGL
Clouds: few clouds at 1600 feet AGL
scattered clouds at 30000 feet AGL
Weather: no significant weather observed at this time

METAR text: PTYA 211150Z VRB04KT 12SM FEW016 SCT130 BKN300 28/24 A2987 RMK SLP115 8/171 T02760242 10315 20275 52027
Conditions at: PTYA (YAP ISLAND , FM) observed 1150 UTC 21 April 2019
Temperature: 27.6°C (82°F)
Dewpoint: 24.2°C (76°F) [RH = 82%]
Pressure (altimeter): 29.87 inches Hg (1011.6 mb)
[Sea-level pressure: 1011.5 mb]
Winds: variable direction winds at 5 MPH (4 knots; 2.1 m/s)
Visibility: 12 miles (19 km)
Ceiling: 30000 feet AGL
Clouds: few clouds at 1600 feet AGL
scattered clouds at 13000 feet AGL
broken clouds at 30000 feet AGL
Weather: no significant weather observed at this time

METAR text: PTYA 211051Z VRB03KT 12SM SCT016 SCT130 BKN300 28/24 A2985 RMK SLP110 T02750242
Conditions at: PTYA (YAP ISLAND , FM) observed 1051 UTC 21 April 2019
Temperature: 27.5°C (82°F)
Dewpoint: 24.2°C (76°F) [RH = 82%]
Pressure (altimeter): 29.85 inches Hg (1010.9 mb)
[Sea-level pressure: 1011.0 mb]
Winds: variable direction winds at 3 MPH (3 knots; 1.5 m/s)
Visibility: 12 miles (19 km)
Ceiling: 30000 feet AGL
Clouds: scattered clouds at 1600 feet AGL
scattered clouds at 13000 feet AGL
broken clouds at 30000 feet AGL
Weather: no significant weather observed at this time

METAR text: PTYA 210955Z VRB04KT 12SM SCT016TCU SCT130 BKN300 28/24 A2983 RMK TCU NE SLP103 T02820243
Conditions at: PTYA (YAP ISLAND , FM) observed 0955 UTC 21 April 2019
Temperature: 28.2°C (83°F)
Dewpoint: 24.3°C (76°F) [RH = 79%]
Pressure (altimeter): 29.83 inches Hg (1010.2 mb)
[Sea-level pressure: 1010.3 mb]
Winds: variable direction winds at 5 MPH (4 knots; 2.1 m/s)
Visibility: 12 miles (19 km)
Ceiling: 30000 feet AGL
Clouds: scattered clouds at 1600 feet AGL
scattered clouds at 13000 feet AGL
broken clouds at 30000 feet AGL
Weather: no significant weather observed at this time

METAR text: PTYA 210850Z VRB04KT 12SM FEW018TCU BKN300 29/24 A2979 RMK TCU E SLP088 8/201 T02890244 52002
Conditions at: PTYA (YAP ISLAND , FM) observed 0850 UTC 21 April 2019
Temperature: 28.9°C (84°F)
Dewpoint: 24.4°C (76°F) [RH = 77%]
Pressure (altimeter): 29.79 inches Hg (1008.9 mb)
[Sea-level pressure: 1008.8 mb]
Winds: variable direction winds at 5 MPH (4 knots; 2.1 m/s)
Visibility: 12 miles (19 km)
Ceiling: 30000 feet AGL
Clouds: few clouds at 1800 feet AGL
broken clouds at 30000 feet AGL
Weather: no significant weather observed at this time

METAR text: PTYA 210754Z VRB05KT 12SM FEW018 SCT300 30/25 A2979 RMK SLP088 T02990246
Conditions at: PTYA (YAP ISLAND , FM) observed 0754 UTC 21 April 2019
Temperature: 29.9°C (86°F)
Dewpoint: 24.6°C (76°F) [RH = 73%]
Pressure (altimeter): 29.79 inches Hg (1008.9 mb)
[Sea-level pressure: 1008.8 mb]
Winds: variable direction winds at 6 MPH (5 knots; 2.6 m/s)
Visibility: 12 miles (19 km)
Ceiling: at least 12,000 feet AGL
Clouds: few clouds at 1800 feet AGL
scattered clouds at 30000 feet AGL
Weather: no significant weather observed at this time

METAR text: PTYA 210651Z VRB05KT 12SM FEW018 BKN300 31/25 A2978 RMK SLP084 T03110247
Conditions at: PTYA (YAP ISLAND , FM) observed 0651 UTC 21 April 2019
Temperature: 31.1°C (88°F)
Dewpoint: 24.7°C (76°F) [RH = 69%]
Pressure (altimeter): 29.78 inches Hg (1008.5 mb)
[Sea-level pressure: 1008.4 mb]
Winds: variable direction winds at 6 MPH (5 knots; 2.6 m/s)
Visibility: 12 miles (19 km)
Ceiling: 30000 feet AGL
Clouds: few clouds at 1800 feet AGL
broken clouds at 30000 feet AGL
Weather: no significant weather observed at this time

METAR text: PTYA 210555Z VRB05KT 12SM FEW019 BKN300 32/25 A2978 RMK SLP086 8/101 T03150249 10325 20308 57014
Conditions at: PTYA (YAP ISLAND , FM) observed 0555 UTC 21 April 2019
Temperature: 31.5°C (89°F)
Dewpoint: 24.9°C (77°F) [RH = 68%]
Pressure (altimeter): 29.78 inches Hg (1008.5 mb)
[Sea-level pressure: 1008.6 mb]
Winds: variable direction winds at 6 MPH (5 knots; 2.6 m/s)
Visibility: 12 miles (19 km)
Ceiling: 30000 feet AGL
Clouds: few clouds at 1900 feet AGL
broken clouds at 30000 feet AGL
Weather: no significant weather observed at this time

METAR text: PTYA 210453Z 10008KT 12SM FEW020 SCT300 32/25 A2979 RMK SLP088 T03180250
Conditions at: PTYA (YAP ISLAND , FM) observed 0453 UTC 21 April 2019
Temperature: 31.8°C (89°F)
Dewpoint: 25.0°C (77°F) [RH = 67%]
Pressure (altimeter): 29.79 inches Hg (1008.9 mb)
[Sea-level pressure: 1008.8 mb]
Winds: from the E (100 degrees) at 9 MPH (8 knots; 4.1 m/s)
Visibility: 12 miles (19 km)
Ceiling: at least 12,000 feet AGL
Clouds: few clouds at 2000 feet AGL
scattered clouds at 30000 feet AGL
Weather: no significant weather observed at this time

METAR text: PTYA 210353Z VRB05KT 12SM FEW020 SCT300 32/25 A2979 RMK SLP090 T03210250
Conditions at: PTYA (YAP ISLAND , FM) observed 0353 UTC 21 April 2019
Temperature: 32.1°C (90°F)
Dewpoint: 25.0°C (77°F) [RH = 66%]
Pressure (altimeter): 29.79 inches Hg (1008.9 mb)
[Sea-level pressure: 1009.0 mb]
Winds: variable direction winds at 6 MPH (5 knots; 2.6 m/s)
Visibility: 12 miles (19 km)
Ceiling: at least 12,000 feet AGL
Clouds: few clouds at 2000 feet AGL
scattered clouds at 30000 feet AGL
Weather: no significant weather observed at this time

METAR text: PTYA 210250Z 10007KT 12SM FEW020 SCT300 33/25 A2982 RMK SLP100 8/101 T03250249 57007
Conditions at: PTYA (YAP ISLAND , FM) observed 0250 UTC 21 April 2019
Temperature: 32.5°C (90°F)
Dewpoint: 24.9°C (77°F) [RH = 64%]
Pressure (altimeter): 29.82 inches Hg (1009.9 mb)
[Sea-level pressure: 1010.0 mb]
Winds: from the E (100 degrees) at 8 MPH (7 knots; 3.6 m/s)
Visibility: 12 miles (19 km)
Ceiling: at least 12,000 feet AGL
Clouds: few clouds at 2000 feet AGL
scattered clouds at 30000 feet AGL
Weather: no significant weather observed at this time

METAR text: PTYA 210153Z VRB06KT 12SM FEW019 FEW300 32/25 A2983 RMK SLP103 T03240254
Conditions at: PTYA (YAP ISLAND , FM) observed 0153 UTC 21 April 2019
Temperature: 32.4°C (90°F)
Dewpoint: 25.4°C (78°F) [RH = 67%]
Pressure (altimeter): 29.83 inches Hg (1010.2 mb)
[Sea-level pressure: 1010.3 mb]
Winds: variable direction winds at 7 MPH (6 knots; 3.1 m/s)
Visibility: 12 miles (19 km)
Ceiling: at least 12,000 feet AGL
Clouds: few clouds at 1900 feet AGL
few clouds at 30000 feet AGL
Weather: no significant weather observed at this time

METAR text: PTYA 210053Z VRB06KT 12SM FEW018 SCT300 32/24 A2984 RMK SLP105 T03160241
Conditions at: PTYA (YAP ISLAND , FM) observed 0053 UTC 21 April 2019
Temperature: 31.6°C (89°F)
Dewpoint: 24.1°C (75°F) [RH = 65%]
Pressure (altimeter): 29.84 inches Hg (1010.6 mb)
[Sea-level pressure: 1010.5 mb]
Winds: variable direction winds at 7 MPH (6 knots; 3.1 m/s)
Visibility: 12 miles (19 km)
Ceiling: at least 12,000 feet AGL
Clouds: few clouds at 1800 feet AGL
scattered clouds at 30000 feet AGL
Weather: no significant weather observed at this time

METAR text: PTYA 202353Z 07010KT 12SM FEW017 BKN300 31/25 A2984 RMK SLP107 8/101 T03080246 10308 20259 51012
Conditions at: PTYA (YAP ISLAND , FM) observed 2353 UTC 20 April 2019
Temperature: 30.8°C (87°F)
Dewpoint: 24.6°C (76°F) [RH = 70%]
Pressure (altimeter): 29.84 inches Hg (1010.6 mb)
[Sea-level pressure: 1010.7 mb]
Winds: from the ENE (70 degrees) at 12 MPH (10 knots; 5.1 m/s)
Visibility: 12 miles (19 km)
Ceiling: 30000 feet AGL
Clouds: few clouds at 1700 feet AGL
broken clouds at 30000 feet AGL
Weather: no significant weather observed at this time

METAR text: PTYA 202250Z VRB04KT 12SM FEW016TCU BKN130 BKN300 28/25 A2984 RMK TCU E SLP107 T02810249
Conditions at: PTYA (YAP ISLAND , FM) observed 2250 UTC 20 April 2019
Temperature: 28.1°C (83°F)
Dewpoint: 24.9°C (77°F) [RH = 83%]
Pressure (altimeter): 29.84 inches Hg (1010.6 mb)
[Sea-level pressure: 1010.7 mb]
Winds: variable direction winds at 5 MPH (4 knots; 2.1 m/s)
Visibility: 12 miles (19 km)
Ceiling: 13000 feet AGL
Clouds: few clouds at 1600 feet AGL
broken clouds at 13000 feet AGL
broken clouds at 30000 feet AGL
Weather: no significant weather observed at this time

METAR text: PTYA 202150Z 00000KT 12SM FEW016 BKN130 BKN300 27/24 A2982 RMK SLP100 T02710244
Conditions at: PTYA (YAP ISLAND , FM) observed 2150 UTC 20 April 2019
Temperature: 27.1°C (81°F)
Dewpoint: 24.4°C (76°F) [RH = 85%]
Pressure (altimeter): 29.82 inches Hg (1009.9 mb)
[Sea-level pressure: 1010.0 mb]
Winds: calm
Visibility: 12 miles (19 km)
Ceiling: 13000 feet AGL
Clouds: few clouds at 1600 feet AGL
broken clouds at 13000 feet AGL
broken clouds at 30000 feet AGL
Weather: no significant weather observed at this time

METAR text: PTYA 202052Z 00000KT 12SM FEW016 BKN130 BKN300 26/24 A2981 RMK SLP095 8/171 T02630238 53007
Conditions at: PTYA (YAP ISLAND , FM) observed 2052 UTC 20 April 2019
Temperature: 26.3°C (79°F)
Dewpoint: 23.8°C (75°F) [RH = 86%]
Pressure (altimeter): 29.81 inches Hg (1009.6 mb)
[Sea-level pressure: 1009.5 mb]
Winds: calm
Visibility: 12 miles (19 km)
Ceiling: 13000 feet AGL
Clouds: few clouds at 1600 feet AGL
broken clouds at 13000 feet AGL
broken clouds at 30000 feet AGL
Weather: no significant weather observed at this time

METAR text: PTYA 201952Z 00000KT 12SM FEW016 SCT130 BKN300 26/25 A2980 RMK SLP093 T02630246
Conditions at: PTYA (YAP ISLAND , FM) observed 1952 UTC 20 April 2019
Temperature: 26.3°C (79°F)
Dewpoint: 24.6°C (76°F) [RH = 90%]
Pressure (altimeter): 29.80 inches Hg (1009.2 mb)
[Sea-level pressure: 1009.3 mb]
Winds: calm
Visibility: 12 miles (19 km)
Ceiling: 30000 feet AGL
Clouds: few clouds at 1600 feet AGL
scattered clouds at 13000 feet AGL
broken clouds at 30000 feet AGL
Weather: no significant weather observed at this time

METAR text: PTYA 201850Z 00000KT 12SM FEW016 SCT130 BKN300 26/24 A2979 RMK SLP090 T02600236
Conditions at: PTYA (YAP ISLAND , FM) observed 1850 UTC 20 April 2019
Temperature: 26.0°C (79°F)
Dewpoint: 23.6°C (74°F) [RH = 87%]
Pressure (altimeter): 29.79 inches Hg (1008.9 mb)
[Sea-level pressure: 1009.0 mb]
Winds: calm
Visibility: 12 miles (19 km)
Ceiling: 30000 feet AGL
Clouds: few clouds at 1600 feet AGL
scattered clouds at 13000 feet AGL
broken clouds at 30000 feet AGL
Weather: no significant weather observed at this time

METAR text: PTYA 201750Z VRB03KT 12SM FEW016 SCT300 26/23 A2979 RMK SLP088 8/101 T02590234 10270 20259 57017
Conditions at: PTYA (YAP ISLAND , FM) observed 1750 UTC 20 April 2019
Temperature: 25.9°C (79°F)
Dewpoint: 23.4°C (74°F) [RH = 86%]
Pressure (altimeter): 29.79 inches Hg (1008.9 mb)
[Sea-level pressure: 1008.8 mb]
Winds: variable direction winds at 3 MPH (3 knots; 1.5 m/s)
Visibility: 12 miles (19 km)
Ceiling: at least 12,000 feet AGL
Clouds: few clouds at 1600 feet AGL
scattered clouds at 30000 feet AGL
Weather: no significant weather observed at this time

METAR text: PTYA 201650Z VRB03KT 12SM FEW016 SCT300 26/23 A2981 RMK SLP095 T02630234
Conditions at: PTYA (YAP ISLAND , FM) observed 1650 UTC 20 April 2019
Temperature: 26.3°C (79°F)
Dewpoint: 23.4°C (74°F) [RH = 84%]
Pressure (altimeter): 29.81 inches Hg (1009.6 mb)
[Sea-level pressure: 1009.5 mb]
Winds: variable direction winds at 3 MPH (3 knots; 1.5 m/s)
Visibility: 12 miles (19 km)
Ceiling: at least 12,000 feet AGL
Clouds: few clouds at 1600 feet AGL
scattered clouds at 30000 feet AGL
Weather: no significant weather observed at this time

METAR text: PTYA 201551Z VRB03KT 12SM FEW016 SCT300 26/23 A2982 RMK SLP100 T02620233
Conditions at: PTYA (YAP ISLAND , FM) observed 1551 UTC 20 April 2019
Temperature: 26.2°C (79°F)
Dewpoint: 23.3°C (74°F) [RH = 84%]
Pressure (altimeter): 29.82 inches Hg (1009.9 mb)
[Sea-level pressure: 1010.0 mb]
Winds: variable direction winds at 3 MPH (3 knots; 1.5 m/s)
Visibility: 12 miles (19 km)
Ceiling: at least 12,000 feet AGL
Clouds: few clouds at 1600 feet AGL
scattered clouds at 30000 feet AGL
Weather: no significant weather observed at this time

METAR text: PTYA 201452Z VRB04KT 12SM FEW018 SCT130 BKN300 27/23 A2984 RMK SLP105 8/171 T02680233 403260263 50000
Conditions at: PTYA (YAP ISLAND , FM) observed 1452 UTC 20 April 2019
Temperature: 26.8°C (80°F)
Dewpoint: 23.3°C (74°F) [RH = 81%]
Pressure (altimeter): 29.84 inches Hg (1010.6 mb)
[Sea-level pressure: 1010.5 mb]
Winds: variable direction winds at 5 MPH (4 knots; 2.1 m/s)
Visibility: 12 miles (19 km)
Ceiling: 30000 feet AGL
Clouds: few clouds at 1800 feet AGL
scattered clouds at 13000 feet AGL
broken clouds at 30000 feet AGL
Weather: no significant weather observed at this time

Forecast for: PTYA (YAP ISLAND , FM)
Text: PTYA 212320Z 2200/2224 07010KT P6SM SCT016
Forecast period: 0000 UTC 22 April 2019 to 0000 UTC 23 April 2019
Forecast type: FROM: standard forecast or significant change
Winds: from the ENE (70 degrees) at 12 MPH (10 knots; 5.1 m/s)
Visibility: 6 or more miles 10+ km)
Ceiling: at least 12,000 feet AGL
Clouds: scattered clouds at 1600 feet AGL
Weather: no significant weather forecast for this period